createdAt,value
2022-09-15T00:01:20.561Z,99256.78
2022-09-15T00:03:48.915Z,99263.75
2022-09-15T00:06:17.613Z,99258.78
2022-09-15T00:08:45.346Z,99257.63
2022-09-15T00:11:27.113Z,99251.50
2022-09-15T00:13:56.347Z,99254.97
2022-09-15T00:16:26.620Z,99248.88
2022-09-15T00:18:54.763Z,99235.91
2022-09-15T00:21:26.372Z,99234.75
2022-09-15T00:23:55.068Z,99244.19
2022-09-15T00:26:25.841Z,99249.50
2022-09-15T00:28:54.584Z,99244.19
2022-09-15T00:31:24.839Z,99230.94
2022-09-15T00:33:56.865Z,99234.25
2022-09-15T00:36:26.776Z,99237.25
2022-09-15T00:38:56.689Z,99230.47
2022-09-15T00:41:25.328Z,99230.00
2022-09-15T00:43:57.822Z,99233.16
2022-09-15T00:46:30.296Z,99235.63
2022-09-15T00:49:09.701Z,99251.22
2022-09-15T00:51:45.570Z,99252.75
2022-09-15T00:54:19.192Z,99236.50
2022-09-15T00:56:50.820Z,99243.44
2022-09-15T00:59:24.848Z,99243.28
2022-09-15T01:02:12.188Z,99231.50
2022-09-15T01:04:40.095Z,99234.00
2022-09-15T01:07:13.117Z,99227.69
2022-09-15T01:09:52.696Z,99221.53
2022-09-15T01:12:22.542Z,99215.56
2022-09-15T01:14:50.425Z,99214.41
2022-09-15T01:17:38.100Z,99212.44
2022-09-15T01:20:34.189Z,99213.41
2022-09-15T01:23:39.675Z,99208.25
2022-09-15T01:26:29.283Z,99200.13
2022-09-15T01:29:21.742Z,99200.97
2022-09-15T01:32:21.603Z,99196.31
2022-09-15T01:35:03.347Z,99199.16
2022-09-15T01:37:40.159Z,99187.03
2022-09-15T01:40:10.756Z,99180.88
2022-09-15T01:42:41.044Z,99171.78
2022-09-15T01:45:16.536Z,99180.75
2022-09-15T01:47:47.943Z,99181.41
2022-09-15T01:50:20.918Z,99181.25
2022-09-15T01:52:53.818Z,99183.72
2022-09-15T01:55:27.910Z,99172.28
2022-09-15T01:57:55.722Z,99170.63
2022-09-15T02:00:23.732Z,99173.78
2022-09-15T02:03:05.709Z,99165.63
2022-09-15T02:05:41.206Z,99172.63
2022-09-15T02:08:27.852Z,99177.59
2022-09-15T02:11:12.931Z,99183.56
2022-09-15T02:13:52.420Z,99185.38
2022-09-15T02:16:28.343Z,99171.28
2022-09-15T02:19:12.204Z,99155.81
2022-09-15T02:22:27.936Z,99160.47
2022-09-15T02:25:11.374Z,99156.00
2022-09-15T02:27:46.764Z,99161.13
2022-09-15T02:30:16.951Z,99161.97
2022-09-15T02:32:56.173Z,99151.19
2022-09-15T02:35:26.973Z,99144.06
2022-09-15T02:37:56.574Z,99133.09
2022-09-15T02:40:24.752Z,99144.69
2022-09-15T02:42:58.426Z,99142.88
2022-09-15T02:45:27.010Z,99129.75
2022-09-15T02:47:54.818Z,99133.91
2022-09-15T02:50:22.676Z,99134.41
2022-09-15T02:52:50.248Z,99135.06
2022-09-15T02:55:18.582Z,99123.59
2022-09-15T02:57:46.638Z,99124.75
2022-09-15T03:00:16.826Z,99119.06
2022-09-15T03:02:50.542Z,99115.78
2022-09-15T03:05:21.524Z,99116.28
2022-09-15T03:07:49.822Z,99098.16
2022-09-15T03:10:18.510Z,99107.16
2022-09-15T03:12:49.485Z,99108.00
2022-09-15T03:15:19.870Z,99109.81
2022-09-15T03:17:48.574Z,99108.63
2022-09-15T03:20:21.456Z,99117.59
2022-09-15T03:22:50.044Z,99114.28
2022-09-15T03:25:18.588Z,99104.84
2022-09-15T03:27:47.123Z,99114.63
2022-09-15T03:30:15.614Z,99106.31
2022-09-15T03:32:43.408Z,99122.28
2022-09-15T03:35:11.769Z,99109.66
2022-09-15T03:37:39.646Z,99105.88
2022-09-15T03:40:08.124Z,99107.53
2022-09-15T03:42:36.317Z,99101.56
2022-09-15T03:45:05.054Z,99096.88
2022-09-15T03:47:33.385Z,99099.72
2022-09-15T03:50:01.377Z,99102.19
2022-09-15T03:52:32.340Z,99105.50
2022-09-15T03:55:00.250Z,99101.53
2022-09-15T03:57:28.364Z,99095.88
2022-09-15T03:59:56.404Z,99093.06
2022-09-15T04:02:24.501Z,99092.91
2022-09-15T04:04:52.738Z,99100.22
2022-09-15T04:07:20.867Z,99097.88
2022-09-15T04:09:48.802Z,99090.41
2022-09-15T04:12:16.823Z,99077.13
2022-09-15T04:14:45.833Z,99078.81
2022-09-15T04:17:15.547Z,99080.13
2022-09-15T04:19:43.486Z,99077.81
2022-09-15T04:22:15.558Z,99069.69
2022-09-15T04:24:48.099Z,99074.66
2022-09-15T04:27:17.124Z,99073.50
2022-09-15T04:29:45.035Z,99072.34
2022-09-15T04:32:13.065Z,99073.16
2022-09-15T04:34:41.600Z,99073.50
2022-09-15T04:37:10.248Z,99066.03
2022-09-15T04:39:38.912Z,99070.34
2022-09-15T04:42:07.871Z,99065.69
2022-09-15T04:44:36.235Z,99064.84
2022-09-15T04:47:04.372Z,99062.69
2022-09-15T04:49:32.591Z,99072.31
2022-09-15T04:52:00.856Z,99074.50
2022-09-15T04:54:28.880Z,99074.63
2022-09-15T04:56:56.790Z,99071.84
2022-09-15T04:59:24.446Z,99072.81
2022-09-15T05:01:55.509Z,99071.03
2022-09-15T05:04:23.422Z,99068.53
2022-09-15T05:06:51.133Z,99068.19
2022-09-15T05:09:19.384Z,99064.53
2022-09-15T05:11:47.436Z,99061.06
2022-09-15T05:14:15.114Z,99056.03
2022-09-15T05:16:42.815Z,99058.06
2022-09-15T05:19:11.480Z,99056.91
2022-09-15T05:21:39.346Z,99050.91
2022-09-15T05:24:07.353Z,99051.25
2022-09-15T05:26:35.488Z,99041.28
2022-09-15T05:29:03.311Z,99038.31
2022-09-15T05:31:36.286Z,99037.81
2022-09-15T05:34:05.717Z,99039.16
2022-09-15T05:36:34.428Z,99030.31
2022-09-15T05:39:02.349Z,99035.97
2022-09-15T05:41:30.544Z,99028.63
2022-09-15T05:43:59.304Z,99035.59
2022-09-15T05:46:29.302Z,99018.94
2022-09-15T05:48:59.009Z,99025.41
2022-09-15T05:51:27.218Z,99025.56
2022-09-15T05:53:55.284Z,99026.75
2022-09-15T05:56:23.108Z,99030.78
2022-09-15T05:58:50.974Z,99027.31
2022-09-15T06:01:24.498Z,99035.59
2022-09-15T06:03:53.028Z,99029.69
2022-09-15T06:06:22.458Z,99030.78
2022-09-15T06:08:58.633Z,99029.47
2022-09-15T06:11:29.817Z,99025.22
2022-09-15T06:14:03.798Z,99028.03
2022-09-15T06:16:34.299Z,99020.09
2022-09-15T06:19:03.579Z,99019.59
2022-09-15T06:21:32.816Z,99023.19
2022-09-15T06:24:07.198Z,99028.25
2022-09-15T06:26:35.272Z,99031.78
2022-09-15T06:29:05.263Z,99036.50
2022-09-15T06:31:34.345Z,99038.16
2022-09-15T06:34:04.138Z,99033.88
2022-09-15T06:36:32.466Z,99032.22
2022-09-15T06:39:00.660Z,99024.25
2022-09-15T06:41:38.217Z,99018.94
2022-09-15T06:44:15.425Z,99021.91
2022-09-15T06:46:43.172Z,99027.22
2022-09-15T06:49:11.410Z,99027.72
2022-09-15T06:51:39.284Z,99034.03
2022-09-15T06:54:08.022Z,99021.78
2022-09-15T06:56:38.302Z,99016.47
2022-09-15T06:59:06.757Z,99012.63
2022-09-15T07:01:34.458Z,99010.81
2022-09-15T07:04:05.662Z,99015.97
2022-09-15T07:06:34.530Z,99010.50
2022-09-15T07:09:02.695Z,99010.50
2022-09-15T07:11:31.730Z,99003.38
2022-09-15T07:13:59.556Z,99013.47
2022-09-15T07:16:27.485Z,99005.50
2022-09-15T07:18:57.226Z,99009.31
2022-09-15T07:21:25.343Z,99006.59
2022-09-15T07:23:57.100Z,99007.72
2022-09-15T07:26:28.286Z,99005.00
2022-09-15T07:29:04.217Z,99002.31
2022-09-15T07:31:33.929Z,99012.78
2022-09-15T07:34:02.577Z,99010.91
2022-09-15T07:36:32.001Z,99014.97
2022-09-15T07:38:59.885Z,99017.44
2022-09-15T07:41:30.069Z,99016.63
2022-09-15T07:43:59.494Z,99013.28
2022-09-15T07:46:31.280Z,99009.06
2022-09-15T07:49:00.698Z,99011.59
2022-09-15T07:51:28.825Z,99010.00
2022-09-15T07:53:56.870Z,99004.03
2022-09-15T07:56:25.111Z,99004.13
2022-09-15T07:58:52.897Z,98999.50
2022-09-15T08:01:22.592Z,98992.31
2022-09-15T08:03:52.496Z,98990.19
2022-09-15T08:06:23.961Z,98986.34
2022-09-15T08:08:56.307Z,98982.72
2022-09-15T08:11:27.316Z,98985.22
2022-09-15T08:13:55.546Z,98986.81
2022-09-15T08:16:24.928Z,98995.78
2022-09-15T08:18:54.013Z,98986.31
2022-09-15T08:21:23.638Z,98987.50
2022-09-15T08:23:59.381Z,98976.16
2022-09-15T08:26:28.186Z,98976.88
2022-09-15T08:28:55.882Z,98975.56
2022-09-15T08:31:25.150Z,98982.38
2022-09-15T08:33:55.231Z,98983.56
2022-09-15T08:36:27.759Z,98981.38
2022-09-15T08:38:56.522Z,98981.16
2022-09-15T08:41:32.587Z,98979.13
2022-09-15T08:44:18.322Z,98981.84
2022-09-15T08:47:17.509Z,98983.22
2022-09-15T08:50:10.367Z,98978.81
2022-09-15T08:52:42.945Z,98981.94
2022-09-15T08:55:21.220Z,98976.44
2022-09-15T08:57:52.356Z,98984.72
2022-09-15T09:00:20.553Z,98989.59
2022-09-15T09:03:06.831Z,98984.94
2022-09-15T09:05:49.911Z,98976.03
2022-09-15T09:08:45.437Z,98979.81
2022-09-15T09:11:26.184Z,98985.22
2022-09-15T09:14:07.418Z,98979.16
2022-09-15T09:16:50.922Z,98971.06
2022-09-15T09:19:49.936Z,98973.28
2022-09-15T09:22:20.862Z,98970.84
2022-09-15T09:24:52.564Z,98967.16
2022-09-15T09:27:25.075Z,98961.16
2022-09-15T09:30:04.518Z,98956.25
2022-09-15T09:32:46.125Z,98964.38
2022-09-15T09:35:23.060Z,98965.13
2022-09-15T09:37:52.854Z,98959.34
2022-09-15T09:40:21.506Z,98957.38
2022-09-15T09:42:50.085Z,98971.25
2022-09-15T09:45:19.666Z,98963.81
2022-09-15T09:47:47.858Z,98962.22
2022-09-15T09:50:43.621Z,98955.03
2022-09-15T09:53:32.985Z,98954.13
2022-09-15T09:56:15.839Z,98942.06
2022-09-15T09:58:44.987Z,98944.75
2022-09-15T10:01:16.481Z,98953.91
2022-09-15T10:03:45.429Z,98951.88
2022-09-15T10:06:15.793Z,98941.66
2022-09-15T10:08:53.162Z,98941.75
2022-09-15T10:11:22.751Z,98942.88
2022-09-15T10:13:54.680Z,98944.03
2022-09-15T10:16:23.012Z,98947.16
2022-09-15T10:18:54.175Z,98942.16
2022-09-15T10:21:24.618Z,98942.22
2022-09-15T10:23:52.615Z,98939.75
2022-09-15T10:26:29.944Z,98947.09
2022-09-15T10:29:12.847Z,98941.97
2022-09-15T10:31:41.737Z,98941.53
2022-09-15T10:34:32.008Z,98941.00
2022-09-15T10:37:08.383Z,98944.81
2022-09-15T10:39:48.542Z,98945.34
2022-09-15T10:42:16.421Z,98947.56
2022-09-15T10:44:48.990Z,98942.16
2022-09-15T10:47:29.825Z,98940.69
2022-09-15T10:50:10.908Z,98942.91
2022-09-15T10:53:19.770Z,98947.78
2022-09-15T10:56:12.949Z,98946.25
2022-09-15T10:59:01.069Z,98951.19
2022-09-15T11:01:29.777Z,98946.69
2022-09-15T11:04:35.397Z,98955.25
2022-09-15T11:07:17.390Z,98966.41
2022-09-15T11:09:57.050Z,98959.69
2022-09-15T11:12:55.184Z,98951.97
2022-09-15T11:15:37.815Z,98956.19
2022-09-15T11:18:31.338Z,98953.91
2022-09-15T11:21:14.819Z,98955.28
2022-09-15T11:24:25.118Z,98950.22
2022-09-15T11:27:11.966Z,98948.09
2022-09-15T11:30:01.091Z,98942.59
2022-09-15T11:32:57.317Z,98947.66
2022-09-15T11:35:39.478Z,98949.75
2022-09-15T11:38:38.568Z,98955.28
2022-09-15T11:41:25.061Z,98957.84
2022-09-15T11:44:29.817Z,98960.91
2022-09-15T11:47:28.142Z,98962.81
2022-09-15T11:49:56.447Z,98958.03
2022-09-15T11:52:37.187Z,98951.13
2022-09-15T11:55:23.442Z,98947.75
2022-09-15T11:57:59.483Z,98942.22
2022-09-15T12:00:28.576Z,98948.38
2022-09-15T12:03:21.639Z,98952.97
2022-09-15T12:06:15.890Z,98952.31
2022-09-15T12:09:06.222Z,98946.91
2022-09-15T12:11:43.112Z,98947.56
2022-09-15T12:14:16.767Z,98952.16
2022-09-15T12:16:45.240Z,98963.53
2022-09-15T12:19:24.934Z,98959.88
2022-09-15T12:22:04.790Z,98962.31
2022-09-15T12:24:46.024Z,98965.09
2022-09-15T12:27:16.883Z,98965.09
2022-09-15T12:29:50.410Z,98965.94
2022-09-15T12:32:29.603Z,98955.91
2022-09-15T12:35:13.483Z,98958.75
2022-09-15T12:37:46.310Z,98953.50
2022-09-15T12:40:34.935Z,98950.66
2022-09-15T12:43:12.662Z,98941.75
2022-09-15T12:45:52.180Z,98942.75
2022-09-15T12:48:29.223Z,98943.34
2022-09-15T12:51:03.181Z,98941.38
2022-09-15T12:56:10.467Z,98930.31
2022-09-15T12:58:46.520Z,98929.59
2022-09-15T13:01:23.550Z,98923.19
2022-09-15T13:03:53.903Z,98923.19
2022-09-15T13:06:29.478Z,98921.97
2022-09-15T13:09:06.288Z,98923.75
2022-09-15T13:11:37.538Z,98924.19
2022-09-15T13:14:08.442Z,98927.00
2022-09-15T13:16:48.122Z,98911.28
2022-09-15T13:19:41.235Z,98925.44
2022-09-15T13:22:12.054Z,98917.97
2022-09-15T13:24:43.088Z,98917.38
2022-09-15T13:27:12.080Z,98920.97
2022-09-15T13:29:49.828Z,98919.78
2022-09-15T13:32:56.241Z,98923.16
2022-09-15T13:35:42.906Z,98915.94
2022-09-15T13:38:21.772Z,98913.47
2022-09-15T13:41:23.587Z,98916.47
2022-09-15T13:44:28.586Z,98909.00
2022-09-15T13:47:18.094Z,98896.63
2022-09-15T13:50:11.126Z,98892.56
2022-09-15T13:52:57.164Z,98897.50
2022-09-15T13:55:28.066Z,98899.06
2022-09-15T14:01:03.299Z,98892.72
2022-09-15T14:03:37.379Z,98890.09
2022-09-15T14:06:30.343Z,98888.56
2022-09-15T14:09:02.137Z,98889.75
2022-09-15T14:11:33.625Z,98884.41
2022-09-15T14:14:01.588Z,98890.13
2022-09-15T14:16:36.845Z,98881.50
2022-09-15T14:19:33.996Z,98877.84
2022-09-15T14:22:18.852Z,98881.75
2022-09-15T14:24:47.587Z,98880.94
2022-09-15T14:27:35.901Z,98882.66
2022-09-15T14:30:06.876Z,98881.72
2022-09-15T14:32:44.015Z,98890.28
2022-09-15T14:35:19.853Z,98888.72
2022-09-15T14:37:50.826Z,98883.25
2022-09-15T14:40:39.458Z,98881.44
2022-09-15T14:43:32.314Z,98885.47
2022-09-15T14:46:13.783Z,98882.53
2022-09-15T14:48:41.669Z,98885.66
2022-09-15T14:51:23.798Z,98891.16
2022-09-15T14:53:55.596Z,98887.44
2022-09-15T14:56:27.869Z,98887.16
2022-09-15T14:59:04.877Z,98894.72
2022-09-15T15:01:37.778Z,98887.97
2022-09-15T15:04:25.630Z,98894.81
2022-09-15T15:07:26.068Z,98886.81
2022-09-15T15:09:57.924Z,98893.75
2022-09-15T15:12:35.336Z,98891.31
2022-09-15T15:15:04.948Z,98891.47
2022-09-15T15:17:43.126Z,98897.03
2022-09-15T15:20:10.673Z,98900.69
2022-09-15T15:22:40.349Z,98900.25
2022-09-15T15:25:41.779Z,98891.34
2022-09-15T15:28:36.073Z,98892.41
2022-09-15T15:31:16.465Z,98900.25
2022-09-15T15:33:56.766Z,98905.13
2022-09-15T15:36:28.894Z,98902.22
2022-09-15T15:39:01.790Z,98907.34
2022-09-15T15:41:35.976Z,98910.00
2022-09-15T15:44:08.368Z,98905.88
2022-09-15T15:46:53.964Z,98900.16
2022-09-15T15:49:26.060Z,98898.13
2022-09-15T15:51:55.369Z,98904.03
2022-09-15T15:54:23.972Z,98890.81
2022-09-15T15:56:52.249Z,98888.06
2022-09-15T15:59:20.129Z,98891.69
2022-09-15T16:01:51.581Z,98890.19
2022-09-15T16:04:19.325Z,98895.66
2022-09-15T16:06:47.688Z,98894.00
2022-09-15T16:09:17.377Z,98885.66
2022-09-15T16:11:45.360Z,98895.47
2022-09-15T16:14:13.941Z,98883.63
2022-09-15T16:16:41.941Z,98880.78
2022-09-15T16:19:09.783Z,98887.22
2022-09-15T16:21:40.220Z,98880.63
2022-09-15T16:24:13.815Z,98875.47
2022-09-15T16:26:42.814Z,98877.22
2022-09-15T16:29:10.628Z,98877.56
2022-09-15T16:31:39.217Z,98865.63
2022-09-15T16:34:06.726Z,98867.22
2022-09-15T16:36:36.409Z,98870.25
2022-09-15T16:39:04.055Z,98864.19
2022-09-15T16:41:34.795Z,98868.47
2022-09-15T16:44:15.979Z,98864.13
2022-09-15T16:46:43.545Z,98857.34
2022-09-15T16:49:11.225Z,98857.44
2022-09-15T16:51:38.948Z,98850.00
2022-09-15T16:54:17.958Z,98856.88
2022-09-15T16:56:46.302Z,98854.97
2022-09-15T16:59:14.634Z,98856.97
2022-09-15T17:01:42.174Z,98855.50
2022-09-15T17:04:15.882Z,98849.34
2022-09-15T17:06:43.889Z,98853.03
2022-09-15T17:09:11.588Z,98854.84
2022-09-15T17:11:39.855Z,98854.66
2022-09-15T17:14:11.791Z,98858.25
2022-09-15T17:16:39.809Z,98852.66
2022-09-15T17:19:07.641Z,98849.16
2022-09-15T17:21:35.250Z,98847.34
2022-09-15T17:24:03.077Z,98844.56
2022-09-15T17:26:31.775Z,98846.84
2022-09-15T17:28:59.499Z,98846.84
2022-09-15T17:31:28.017Z,98848.97
2022-09-15T17:33:55.967Z,98841.00
2022-09-15T17:36:24.079Z,98843.81
2022-09-15T17:38:51.662Z,98844.19
2022-09-15T17:41:21.602Z,98839.22
2022-09-15T17:43:49.638Z,98837.75
2022-09-15T17:46:17.287Z,98830.50
2022-09-15T17:48:44.884Z,98837.38
2022-09-15T17:51:17.178Z,98842.03
2022-09-15T17:53:47.911Z,98836.44
2022-09-15T17:56:15.588Z,98845.78
2022-09-15T17:58:43.308Z,98840.09
2022-09-15T18:01:13.401Z,98836.69
2022-09-15T18:03:43.640Z,98837.16
2022-09-15T18:06:11.724Z,98833.84
2022-09-15T18:08:40.732Z,98833.38
2022-09-15T18:11:10.722Z,98836.03
2022-09-15T18:13:38.478Z,98832.38
2022-09-15T18:16:10.986Z,98830.44
2022-09-15T18:18:40.547Z,98834.19
2022-09-15T18:21:15.531Z,98825.28
2022-09-15T18:23:45.157Z,98826.09
2022-09-15T18:26:12.784Z,98819.31
2022-09-15T18:28:40.529Z,98822.84
2022-09-15T18:31:12.610Z,98817.53
2022-09-15T18:33:40.685Z,98822.84
2022-09-15T18:36:08.465Z,98816.59
2022-09-15T18:38:36.667Z,98807.78
2022-09-15T18:41:10.476Z,98812.84
2022-09-15T18:43:38.218Z,98815.22
2022-09-15T18:46:15.839Z,98804.47
2022-09-15T18:48:43.698Z,98816.59
2022-09-15T18:51:16.286Z,98809.78
2022-09-15T18:53:52.052Z,98812.94
2022-09-15T18:56:21.658Z,98801.00
2022-09-15T18:58:53.777Z,98805.44
2022-09-15T19:01:22.571Z,98800.41
2022-09-15T19:03:50.350Z,98798.78
2022-09-15T19:06:18.021Z,98805.25
2022-09-15T19:08:46.019Z,98799.53
2022-09-15T19:11:13.844Z,98801.38
2022-09-15T19:13:41.708Z,98799.38
2022-09-15T19:16:09.816Z,98802.19
2022-09-15T19:18:38.133Z,98791.09
2022-09-15T19:21:11.321Z,98800.38
2022-09-15T19:23:39.445Z,98796.41
2022-09-15T19:26:10.086Z,98796.13
2022-09-15T19:28:37.724Z,98788.16
2022-09-15T19:31:05.956Z,98789.50
2022-09-15T19:33:34.158Z,98787.88
2022-09-15T19:36:24.130Z,98792.28
2022-09-15T19:38:51.770Z,98785.56
2022-09-15T19:41:19.278Z,98794.81
2022-09-15T19:43:47.075Z,98791.97
2022-09-15T19:46:21.306Z,98797.75
2022-09-15T19:48:50.234Z,98788.31
2022-09-15T19:51:18.415Z,98792.75
2022-09-15T19:53:47.548Z,98790.09
2022-09-15T19:56:19.422Z,98789.78
2022-09-15T19:58:47.156Z,98789.63
2022-09-15T20:01:16.014Z,98785.84
2022-09-15T20:06:32.505Z,98784.88
2022-09-15T20:09:00.891Z,98779.72
2022-09-15T20:11:30.244Z,98781.25
2022-09-15T20:13:57.960Z,98780.41
2022-09-15T20:16:25.934Z,98773.28
2022-09-15T20:18:54.882Z,98777.72
2022-09-15T20:21:48.650Z,98779.22
2022-09-15T20:24:16.932Z,98772.22
2022-09-15T20:26:44.464Z,98758.81
2022-09-15T20:29:12.282Z,98771.28
2022-09-15T20:31:40.528Z,98765.66
2022-09-15T20:34:08.323Z,98767.50
2022-09-15T20:36:38.497Z,98770.31
2022-09-15T20:39:13.309Z,98766.16
2022-09-15T20:41:45.221Z,98767.31
2022-09-15T20:44:13.694Z,98766.50
2022-09-15T20:46:41.494Z,98768.31
2022-09-15T20:49:13.029Z,98765.97
2022-09-15T20:51:40.666Z,98759.88
2022-09-15T20:54:08.132Z,98761.75
2022-09-15T20:56:36.574Z,98760.94
2022-09-15T20:59:04.857Z,98764.47
2022-09-15T21:01:36.792Z,98764.75
2022-09-15T21:04:06.411Z,98769.06
2022-09-15T21:06:34.428Z,98761.97
2022-09-15T21:09:03.325Z,98764.31
2022-09-15T21:11:31.040Z,98767.50
2022-09-15T21:13:59.030Z,98754.69
2022-09-15T21:16:28.573Z,98757.22
2022-09-15T21:18:57.765Z,98755.06
2022-09-15T21:21:30.194Z,98748.28
2022-09-15T21:24:01.305Z,98749.97
2022-09-15T21:26:31.508Z,98747.31
2022-09-15T21:28:59.630Z,98744.66
2022-09-15T21:31:30.224Z,98748.66
2022-09-15T21:33:59.233Z,98747.34
2022-09-15T21:36:29.826Z,98751.34
2022-09-15T21:38:59.497Z,98747.84
2022-09-15T21:41:30.016Z,98743.03
2022-09-15T21:43:59.148Z,98747.88
2022-09-15T21:46:28.007Z,98747.03
2022-09-15T21:48:58.557Z,98748.06
2022-09-15T21:51:28.927Z,98751.38
2022-09-15T21:53:58.496Z,98750.22
2022-09-15T21:56:28.220Z,98745.09
2022-09-15T21:58:55.780Z,98749.41
2022-09-15T22:01:24.445Z,98747.25
2022-09-15T22:03:57.195Z,98747.25
2022-09-15T22:06:30.166Z,98747.09
2022-09-15T22:08:59.314Z,98733.34
2022-09-15T22:11:27.062Z,98744.94
2022-09-15T22:13:54.596Z,98740.97
2022-09-15T22:16:24.594Z,98740.31
2022-09-15T22:18:52.903Z,98739.34
2022-09-15T22:21:23.769Z,98742.16
2022-09-15T22:23:53.783Z,98748.97
2022-09-15T22:26:27.199Z,98751.47
2022-09-15T22:28:56.127Z,98751.28
2022-09-15T22:31:24.748Z,98744.84
2022-09-15T22:33:53.053Z,98744.84
2022-09-15T22:36:28.615Z,98757.28
2022-09-15T22:39:04.723Z,98750.16
2022-09-15T22:41:35.614Z,98742.03
2022-09-15T22:44:04.054Z,98732.13
2022-09-15T22:46:32.583Z,98748.19
2022-09-15T22:49:00.467Z,98740.72
2022-09-15T22:51:27.970Z,98744.53
2022-09-15T22:53:57.257Z,98735.59
2022-09-15T22:56:26.400Z,98740.06
2022-09-15T22:58:56.285Z,98739.75
2022-09-15T23:01:26.857Z,98737.78
2022-09-15T23:03:59.948Z,98736.25
2022-09-15T23:06:31.244Z,98731.97
2022-09-15T23:09:01.116Z,98738.25
2022-09-15T23:11:30.026Z,98740.91
2022-09-15T23:13:57.844Z,98737.44
2022-09-15T23:16:26.764Z,98733.94
2022-09-15T23:18:54.762Z,98734.97
2022-09-15T23:21:22.865Z,98725.19
2022-09-15T23:23:53.020Z,98728.50
2022-09-15T23:26:22.562Z,98727.16
2022-09-15T23:28:50.406Z,98721.22
2022-09-15T23:31:18.166Z,98724.38
2022-09-15T23:33:46.476Z,98718.91
2022-09-15T23:36:16.560Z,98729.50
2022-09-15T23:38:45.444Z,98728.84
2022-09-15T23:41:14.784Z,98733.16
2022-09-15T23:43:42.358Z,98735.97
2022-09-15T23:46:10.222Z,98736.63
2022-09-15T23:48:38.103Z,98729.50
2022-09-15T23:51:06.404Z,98734.31
2022-09-15T23:53:34.296Z,98727.38
2022-09-15T23:56:02.291Z,98733.31
2022-09-15T23:58:30.230Z,98728.88
